createdAt,value
2022-10-02T00:01:58.881Z,14.17
2022-10-02T00:04:35.210Z,16.63
2022-10-02T00:07:07.839Z,14.17
2022-10-02T00:09:42.023Z,14.07
2022-10-02T00:12:15.793Z,12.67
2022-10-02T00:14:46.577Z,13.30
2022-10-02T00:17:19.498Z,13.80
2022-10-02T00:19:47.242Z,13.13
2022-10-02T00:22:32.824Z,15.27
2022-10-02T00:25:09.230Z,15.60
2022-10-02T00:27:50.524Z,13.47
2022-10-02T00:30:19.094Z,12.77
2022-10-02T00:33:00.514Z,15.40
2022-10-02T00:35:55.694Z,16.87
2022-10-02T00:38:38.374Z,13.50
2022-10-02T00:41:26.976Z,19.00
2022-10-02T00:44:10.635Z,10.80
2022-10-02T00:46:46.377Z,16.70
2022-10-02T00:49:35.341Z,17.97
2022-10-02T00:52:15.556Z,14.03
2022-10-02T00:55:18.576Z,14.03
2022-10-02T00:58:01.030Z,17.50
2022-10-02T01:00:30.189Z,13.90
2022-10-02T01:03:09.836Z,16.33
2022-10-02T01:05:38.246Z,18.00
2022-10-02T01:08:07.291Z,15.90
2022-10-02T01:10:37.081Z,19.50
2022-10-02T01:13:05.392Z,22.03
2022-10-02T01:15:37.104Z,20.13
2022-10-02T01:18:05.706Z,13.97
2022-10-02T01:20:37.688Z,10.37
2022-10-02T01:23:16.433Z,15.20
2022-10-02T01:25:46.057Z,17.17
2022-10-02T01:28:14.043Z,15.27
2022-10-02T01:30:45.463Z,16.00
2022-10-02T01:33:15.085Z,17.20
2022-10-02T01:35:44.219Z,12.30
2022-10-02T01:38:13.476Z,16.60
2022-10-02T01:40:42.001Z,16.73
2022-10-02T01:43:14.569Z,17.80
2022-10-02T01:45:52.777Z,16.53
2022-10-02T01:48:31.403Z,15.90
2022-10-02T01:51:13.912Z,14.83
2022-10-02T01:53:47.628Z,19.73
2022-10-02T01:56:24.153Z,17.83
2022-10-02T01:59:04.687Z,17.57
2022-10-02T02:01:45.085Z,17.67
2022-10-02T02:04:23.173Z,18.97
2022-10-02T02:06:58.157Z,16.53
2022-10-02T02:09:35.476Z,14.03
2022-10-02T02:12:11.105Z,12.07
2022-10-02T02:14:48.385Z,22.07
2022-10-02T02:17:21.493Z,14.77
2022-10-02T02:19:57.411Z,17.17
2022-10-02T02:22:29.141Z,13.73
2022-10-02T02:25:01.346Z,17.27
2022-10-02T02:27:34.702Z,17.90
2022-10-02T02:30:07.783Z,19.83
2022-10-02T02:32:39.958Z,15.13
2022-10-02T02:35:12.512Z,16.27
2022-10-02T02:37:41.905Z,19.60
2022-10-02T02:40:12.792Z,13.90
2022-10-02T02:42:45.700Z,19.77
2022-10-02T02:45:20.600Z,17.57
2022-10-02T02:47:52.144Z,15.70
2022-10-02T02:50:24.855Z,19.50
2022-10-02T02:52:58.669Z,20.43
2022-10-02T02:55:32.491Z,18.13
2022-10-02T02:58:06.762Z,17.63
2022-10-02T03:00:36.971Z,20.87
2022-10-02T03:03:04.890Z,16.40
2022-10-02T03:05:33.415Z,20.90
2022-10-02T03:08:04.352Z,24.10
2022-10-02T03:10:50.753Z,17.10
2022-10-02T03:13:32.277Z,14.77
2022-10-02T03:16:16.948Z,16.27
2022-10-02T03:18:58.562Z,17.77
2022-10-02T03:21:31.572Z,17.77
2022-10-02T03:24:07.428Z,18.63
2022-10-02T03:26:41.202Z,16.30
2022-10-02T03:29:15.586Z,18.03
2022-10-02T03:31:46.225Z,23.47
2022-10-02T03:34:14.430Z,19.48
2022-10-02T03:36:42.346Z,13.83
2022-10-02T03:39:24.797Z,18.60
2022-10-02T03:41:53.374Z,16.10
2022-10-02T03:44:21.324Z,17.70
2022-10-02T03:46:50.539Z,14.60
2022-10-02T03:49:18.359Z,18.63
2022-10-02T03:51:46.073Z,19.87
2022-10-02T03:54:17.830Z,21.27
2022-10-02T03:56:54.053Z,16.23
2022-10-02T03:59:34.522Z,17.90
2022-10-02T04:02:08.924Z,17.13
2022-10-02T04:04:45.691Z,15.23
2022-10-02T04:07:19.548Z,17.57
2022-10-02T04:09:53.124Z,17.23
2022-10-02T04:12:24.937Z,19.80
2022-10-02T04:14:57.099Z,13.10
2022-10-02T04:17:35.051Z,15.73
2022-10-02T04:20:11.538Z,15.40
2022-10-02T04:22:44.815Z,15.70
2022-10-02T04:25:17.456Z,20.73
2022-10-02T04:27:51.451Z,22.90
2022-10-02T04:30:20.973Z,15.27
2022-10-02T04:32:50.447Z,13.40
2022-10-02T04:35:26.688Z,15.43
2022-10-02T04:38:07.645Z,17.30
2022-10-02T04:40:50.548Z,16.67
2022-10-02T04:43:34.700Z,18.37
2022-10-02T04:46:17.117Z,17.50
2022-10-02T04:49:05.383Z,17.63
2022-10-02T04:51:47.465Z,12.80
2022-10-02T04:54:46.112Z,16.13
2022-10-02T04:57:28.283Z,15.03
2022-10-02T05:00:05.110Z,15.17
2022-10-02T05:02:57.763Z,18.30
2022-10-02T05:05:36.038Z,15.47
2022-10-02T05:08:22.860Z,18.43
2022-10-02T05:11:05.948Z,16.33
2022-10-02T05:13:59.259Z,11.00
2022-10-02T05:16:47.215Z,16.20
2022-10-02T05:19:41.300Z,16.63
2022-10-02T05:22:45.278Z,15.77
2022-10-02T05:25:34.815Z,16.40
2022-10-02T05:28:16.468Z,17.13
2022-10-02T05:30:49.399Z,15.03
2022-10-02T05:33:48.502Z,15.60
2022-10-02T05:37:02.390Z,13.03
2022-10-02T05:39:34.487Z,14.40
2022-10-02T05:42:09.076Z,14.80
2022-10-02T05:44:40.220Z,9.27
2022-10-02T05:47:13.641Z,17.57
2022-10-02T05:49:45.765Z,15.13
2022-10-02T05:52:19.603Z,15.33
2022-10-02T05:54:55.438Z,13.57
2022-10-02T05:57:32.056Z,18.33
2022-10-02T06:00:20.720Z,8.45
2022-10-02T06:02:57.224Z,12.53
2022-10-02T06:05:30.375Z,12.03
2022-10-02T06:08:03.699Z,12.98
2022-10-02T06:10:39.184Z,12.20
2022-10-02T06:13:13.764Z,12.47
2022-10-02T06:15:47.841Z,8.27
2022-10-02T06:18:20.564Z,12.02
2022-10-02T06:20:52.973Z,11.63
2022-10-02T06:23:25.657Z,8.43
2022-10-02T06:25:57.181Z,9.97
2022-10-02T06:28:30.322Z,12.70
2022-10-02T06:31:03.673Z,9.33
2022-10-02T06:33:33.144Z,9.57
2022-10-02T06:36:41.216Z,8.47
2022-10-02T06:39:31.251Z,8.43
2022-10-02T06:42:12.792Z,9.90
2022-10-02T06:44:50.447Z,12.90
2022-10-02T06:47:34.868Z,10.47
2022-10-02T06:50:21.099Z,8.00
2022-10-02T06:52:57.929Z,9.70
2022-10-02T06:55:38.701Z,7.43
2022-10-02T06:58:25.133Z,5.17
2022-10-02T07:01:00.002Z,11.25
2022-10-02T07:03:51.953Z,7.43
2022-10-02T07:06:36.969Z,8.20
2022-10-02T07:09:30.619Z,6.50
2022-10-02T07:12:10.733Z,9.67
2022-10-02T07:15:01.115Z,5.33
2022-10-02T07:17:40.315Z,6.53
2022-10-02T07:20:36.398Z,8.27
2022-10-02T07:23:28.146Z,7.57
2022-10-02T07:26:25.801Z,6.03
2022-10-02T07:29:00.527Z,7.40
2022-10-02T07:31:46.137Z,8.60
2022-10-02T07:34:28.926Z,9.43
2022-10-02T07:37:06.973Z,7.93
2022-10-02T07:39:49.806Z,7.03
2022-10-02T07:42:46.595Z,6.60
2022-10-02T07:45:30.301Z,5.23
2022-10-02T07:48:28.951Z,6.40
2022-10-02T07:51:05.111Z,6.47
2022-10-02T07:53:41.090Z,7.33
2022-10-02T07:56:19.888Z,8.43
2022-10-02T07:58:52.690Z,6.50
2022-10-02T08:01:25.911Z,6.32
2022-10-02T08:03:59.240Z,7.40
2022-10-02T08:06:27.042Z,9.70
2022-10-02T08:08:57.628Z,7.43
2022-10-02T08:11:30.184Z,5.07
2022-10-02T08:14:03.369Z,7.07
2022-10-02T08:16:37.878Z,8.43
2022-10-02T08:19:14.410Z,6.70
2022-10-02T08:21:46.677Z,8.70
2022-10-02T08:24:18.867Z,7.23
2022-10-02T08:26:51.983Z,6.73
2022-10-02T08:29:25.904Z,5.57
2022-10-02T08:31:54.037Z,8.83
2022-10-02T08:34:25.635Z,5.90
2022-10-02T08:37:13.181Z,5.60
2022-10-02T08:40:01.501Z,6.30
2022-10-02T08:43:12.069Z,4.70
2022-10-02T08:46:06.597Z,5.93
2022-10-02T08:49:13.402Z,7.37
2022-10-02T08:51:57.715Z,6.20
2022-10-02T08:55:06.967Z,5.18
2022-10-02T08:58:16.100Z,5.73
2022-10-02T09:00:58.790Z,7.77
2022-10-02T09:04:28.247Z,5.87
2022-10-02T09:07:29.279Z,4.37
2022-10-02T09:10:35.450Z,13.10
2022-10-02T09:13:45.869Z,7.10
2022-10-02T09:16:20.101Z,6.63
2022-10-02T09:18:59.971Z,5.90
2022-10-02T09:21:43.563Z,6.97
2022-10-02T09:24:43.179Z,4.73
2022-10-02T09:27:43.935Z,6.03
2022-10-02T09:30:49.219Z,6.90
2022-10-02T09:34:08.391Z,7.00
2022-10-02T09:37:04.940Z,6.17
2022-10-02T09:40:08.846Z,5.03
2022-10-02T09:43:12.482Z,4.00
2022-10-02T09:46:13.863Z,6.33
2022-10-02T09:49:27.046Z,5.32
2022-10-02T09:52:23.174Z,6.55
2022-10-02T09:55:36.771Z,7.13
2022-10-02T09:58:46.224Z,7.40
2022-10-02T10:01:36.703Z,8.23
2022-10-02T10:05:05.214Z,11.83
2022-10-02T10:08:07.402Z,8.70
2022-10-02T10:10:54.814Z,5.40
2022-10-02T10:14:04.075Z,9.60
2022-10-02T10:17:19.222Z,9.13
2022-10-02T10:20:31.046Z,8.98
2022-10-02T10:23:36.395Z,8.67
2022-10-02T10:26:37.393Z,5.30
2022-10-02T10:29:34.751Z,5.47
2022-10-02T10:32:43.676Z,5.77
2022-10-02T10:35:56.081Z,7.43
2022-10-02T10:38:52.290Z,5.80
2022-10-02T10:41:45.523Z,4.97
2022-10-02T10:44:39.565Z,8.15
2022-10-02T10:47:35.908Z,10.03
2022-10-02T10:50:26.785Z,4.00
2022-10-02T10:53:17.069Z,4.90
2022-10-02T10:56:03.717Z,7.93
2022-10-02T10:58:46.304Z,9.63
2022-10-02T11:01:18.692Z,5.20
2022-10-02T11:04:39.280Z,5.20
2022-10-02T11:07:19.863Z,5.13
2022-10-02T11:10:11.798Z,6.27
2022-10-02T11:13:12.855Z,4.57
2022-10-02T11:16:27.849Z,6.90
2022-10-02T11:19:23.196Z,5.83
2022-10-02T11:22:25.900Z,6.28
2022-10-02T11:25:27.521Z,6.17
2022-10-02T11:28:28.461Z,9.05
2022-10-02T11:31:12.626Z,6.82
2022-10-02T11:34:07.542Z,5.00
2022-10-02T11:36:47.522Z,8.13
2022-10-02T11:39:20.940Z,7.90
2022-10-02T11:42:12.986Z,7.00
2022-10-02T11:44:57.665Z,8.88
2022-10-02T11:47:47.220Z,7.72
2022-10-02T11:50:41.269Z,6.05
2022-10-02T11:53:24.804Z,8.52
2022-10-02T11:56:14.310Z,7.50
2022-10-02T11:59:06.114Z,6.00
2022-10-02T12:01:45.257Z,6.07
2022-10-02T12:04:29.954Z,4.30
2022-10-02T12:07:17.691Z,5.57
2022-10-02T12:09:57.283Z,6.95
2022-10-02T12:12:39.280Z,5.87
2022-10-02T12:15:17.123Z,8.87
2022-10-02T12:18:01.135Z,8.20
2022-10-02T12:21:00.116Z,5.53
2022-10-02T12:24:07.958Z,7.68
2022-10-02T12:27:04.065Z,6.30
2022-10-02T12:30:07.140Z,7.30
2022-10-02T12:32:48.034Z,8.98
2022-10-02T12:35:39.198Z,7.80
2022-10-02T12:38:20.184Z,9.30
2022-10-02T12:40:59.651Z,7.68
2022-10-02T12:44:00.643Z,9.38
2022-10-02T12:46:52.597Z,11.43
2022-10-02T12:49:34.184Z,5.82
2022-10-02T12:52:34.215Z,6.75
2022-10-02T12:55:49.007Z,7.60
2022-10-02T12:58:23.852Z,6.82
2022-10-02T13:01:18.506Z,6.45
2022-10-02T13:04:09.364Z,6.28
2022-10-02T13:07:14.693Z,6.20
2022-10-02T13:09:51.389Z,8.57
2022-10-02T13:12:42.231Z,9.37
2022-10-02T13:15:26.383Z,7.00
2022-10-02T13:18:04.367Z,7.13
2022-10-02T13:20:40.223Z,6.22
2022-10-02T13:23:21.871Z,8.52
2022-10-02T13:25:59.673Z,10.27
2022-10-02T13:28:50.923Z,7.10
2022-10-02T13:31:30.415Z,6.17
2022-10-02T13:34:15.003Z,7.18
2022-10-02T13:36:55.748Z,7.65
2022-10-02T13:39:35.064Z,6.77
2022-10-02T13:42:28.887Z,7.50
2022-10-02T13:45:05.471Z,10.55
2022-10-02T13:47:41.509Z,8.02
2022-10-02T13:50:39.607Z,7.15
2022-10-02T13:53:32.286Z,7.47
2022-10-02T13:56:14.707Z,8.83
2022-10-02T13:58:59.560Z,7.35
2022-10-02T14:01:40.233Z,6.18
2022-10-02T14:04:23.377Z,7.72
2022-10-02T14:06:57.597Z,8.93
2022-10-02T14:09:42.513Z,4.63
2022-10-02T14:12:25.857Z,9.97
2022-10-02T14:15:22.129Z,6.50
2022-10-02T14:18:16.304Z,4.93
2022-10-02T14:20:55.426Z,6.85
2022-10-02T14:23:54.105Z,8.50
2022-10-02T14:26:34.118Z,7.20
2022-10-02T14:29:27.469Z,10.02
2022-10-02T14:32:39.542Z,5.70
2022-10-02T14:35:28.339Z,6.28
2022-10-02T14:38:11.599Z,8.15
2022-10-02T14:40:51.069Z,7.18
2022-10-02T14:43:46.719Z,7.83
2022-10-02T14:46:36.540Z,8.43
2022-10-02T14:49:22.420Z,6.85
2022-10-02T14:52:05.996Z,8.27
2022-10-02T14:54:50.353Z,8.70
2022-10-02T14:57:38.057Z,8.82
2022-10-02T15:00:19.461Z,7.70
2022-10-02T15:03:10.989Z,9.43
2022-10-02T15:06:10.193Z,10.73
2022-10-02T15:08:43.928Z,9.02
2022-10-02T15:11:22.887Z,6.63
2022-10-02T15:13:56.761Z,7.93
2022-10-02T15:16:51.347Z,10.70
2022-10-02T15:19:26.274Z,9.30
2022-10-02T15:22:01.975Z,9.68
2022-10-02T15:24:36.104Z,7.93
2022-10-02T15:27:12.783Z,7.28
2022-10-02T15:29:53.843Z,11.25
2022-10-02T15:32:42.193Z,7.80
2022-10-02T15:35:29.637Z,8.77
2022-10-02T15:38:17.974Z,13.38
2022-10-02T15:40:56.956Z,6.75
2022-10-02T15:43:48.995Z,6.72
2022-10-02T15:46:25.931Z,7.22
2022-10-02T15:49:12.112Z,7.90
2022-10-02T15:51:51.763Z,9.07
2022-10-02T15:54:32.870Z,5.28
2022-10-02T15:57:27.747Z,6.13
2022-10-02T16:00:16.217Z,7.20
2022-10-02T16:03:17.126Z,7.65
2022-10-02T16:05:53.167Z,7.87
2022-10-02T16:09:02.592Z,6.18
2022-10-02T16:11:54.088Z,7.68
2022-10-02T16:14:32.753Z,7.88
2022-10-02T16:17:19.894Z,10.07
2022-10-02T16:20:05.579Z,8.85
2022-10-02T16:22:48.655Z,11.93
2022-10-02T16:25:31.964Z,7.40
2022-10-02T16:28:14.732Z,6.45
2022-10-02T16:31:04.238Z,8.65
2022-10-02T16:33:43.791Z,7.93
2022-10-02T16:36:38.203Z,9.70
2022-10-02T16:39:24.626Z,6.70
2022-10-02T16:42:02.760Z,7.70
2022-10-02T16:45:06.003Z,8.77
2022-10-02T16:47:43.977Z,8.43
2022-10-02T16:50:20.248Z,8.15
2022-10-02T16:52:54.821Z,10.07
2022-10-02T16:55:30.305Z,7.55
2022-10-02T16:58:13.230Z,6.65
2022-10-02T17:00:54.413Z,13.23
2022-10-02T17:03:33.574Z,6.35
2022-10-02T17:06:08.191Z,6.80
2022-10-02T17:08:43.515Z,6.67
2022-10-02T17:11:21.250Z,7.93
2022-10-02T17:14:06.236Z,9.00
2022-10-02T17:16:40.881Z,9.40
2022-10-02T17:19:22.191Z,8.10
2022-10-02T17:21:55.135Z,8.52
2022-10-02T17:24:34.538Z,11.32
2022-10-02T17:27:14.076Z,9.23
2022-10-02T17:29:54.216Z,10.18
2022-10-02T17:32:48.139Z,9.40
2022-10-02T17:35:18.239Z,8.63
2022-10-02T17:38:02.273Z,15.73
2022-10-02T17:40:37.853Z,11.02
2022-10-02T17:43:17.217Z,7.63
2022-10-02T17:45:58.240Z,11.30
2022-10-02T17:48:50.841Z,10.83
2022-10-02T17:51:51.853Z,13.00
2022-10-02T17:54:52.168Z,12.00
2022-10-02T17:57:39.280Z,9.70
2022-10-02T18:00:21.906Z,13.30
2022-10-02T18:03:23.639Z,13.38
2022-10-02T18:06:04.359Z,14.10
2022-10-02T18:08:49.805Z,12.40
2022-10-02T18:11:32.143Z,11.00
2022-10-02T18:14:13.929Z,9.80
2022-10-02T18:17:03.249Z,10.83
2022-10-02T18:19:37.959Z,14.53
2022-10-02T18:22:33.608Z,15.38
2022-10-02T18:25:31.001Z,12.30
2022-10-02T18:28:17.735Z,10.00
2022-10-02T18:30:50.126Z,11.07
2022-10-02T18:33:42.349Z,17.30
2022-10-02T18:36:29.026Z,8.63
2022-10-02T18:39:02.411Z,11.60
2022-10-02T18:41:55.632Z,11.37
2022-10-02T18:44:42.877Z,12.77
2022-10-02T18:47:26.457Z,10.07
2022-10-02T18:50:07.801Z,10.63
2022-10-02T18:52:53.030Z,9.20
2022-10-02T18:55:46.221Z,7.57
2022-10-02T18:58:26.974Z,10.13
2022-10-02T19:01:21.215Z,7.97
2022-10-02T19:04:03.814Z,10.63
2022-10-02T19:06:34.029Z,8.73
2022-10-02T19:09:19.036Z,9.23
2022-10-02T19:11:56.213Z,7.60
2022-10-02T19:14:34.945Z,8.83
2022-10-02T19:17:08.685Z,10.10
2022-10-02T19:19:36.872Z,10.03
2022-10-02T19:22:12.863Z,10.07
2022-10-02T19:24:43.009Z,9.02
2022-10-02T19:27:19.732Z,9.77
2022-10-02T19:29:55.983Z,9.70
2022-10-02T19:32:27.739Z,9.77
2022-10-02T19:35:03.832Z,9.05
2022-10-02T19:37:32.947Z,13.07
2022-10-02T19:40:04.612Z,11.10
2022-10-02T19:42:47.251Z,11.13
2022-10-02T19:45:25.503Z,8.77
2022-10-02T19:47:56.919Z,11.73
2022-10-02T19:50:28.735Z,7.10
2022-10-02T19:53:00.659Z,8.18
2022-10-02T19:55:33.638Z,9.23
2022-10-02T19:58:07.669Z,10.47
2022-10-02T20:00:38.713Z,9.98
2022-10-02T20:03:11.195Z,13.13
2022-10-02T20:05:38.954Z,8.20
2022-10-02T20:08:15.083Z,7.73
2022-10-02T20:10:47.739Z,9.27
2022-10-02T20:13:20.190Z,9.20
2022-10-02T20:16:12.346Z,9.73
2022-10-02T20:18:40.400Z,12.00
2022-10-02T20:21:16.760Z,8.10
2022-10-02T20:23:50.418Z,7.67
2022-10-02T20:26:23.283Z,10.13
2022-10-02T20:28:56.611Z,8.07
2022-10-02T20:31:34.425Z,7.23
2022-10-02T20:34:05.552Z,9.25
2022-10-02T20:36:38.423Z,8.63
2022-10-02T20:39:09.767Z,10.57
2022-10-02T20:41:55.640Z,7.20
2022-10-02T20:44:25.670Z,8.23
2022-10-02T20:47:23.291Z,9.17
2022-10-02T20:50:15.144Z,6.83
2022-10-02T20:53:06.374Z,7.17
2022-10-02T20:55:43.416Z,6.93
2022-10-02T20:58:33.179Z,6.97
2022-10-02T21:01:16.881Z,6.97
2022-10-02T21:04:22.580Z,6.67
2022-10-02T21:07:20.238Z,9.80
2022-10-02T21:10:17.661Z,7.73
2022-10-02T21:13:09.902Z,8.33
2022-10-02T21:15:53.470Z,9.47
2022-10-02T21:18:51.148Z,11.20
2022-10-02T21:21:41.635Z,12.27
2022-10-02T21:24:34.068Z,8.67
2022-10-02T21:27:36.846Z,9.47
2022-10-02T21:30:13.718Z,8.57
2022-10-02T21:32:55.588Z,8.83
2022-10-02T21:35:57.143Z,10.27
2022-10-02T21:38:46.794Z,9.97
2022-10-02T21:41:44.148Z,8.67
2022-10-02T21:44:53.615Z,9.13
2022-10-02T21:48:04.540Z,11.23
2022-10-02T21:50:56.799Z,10.57
2022-10-02T21:53:50.964Z,8.03
2022-10-02T21:56:49.609Z,8.17
2022-10-02T21:59:51.881Z,11.03
2022-10-02T22:02:43.749Z,9.10
2022-10-02T22:05:34.749Z,8.73
2022-10-02T22:08:15.577Z,13.63
2022-10-02T22:10:57.381Z,9.97
2022-10-02T22:13:31.075Z,10.30
2022-10-02T22:16:13.811Z,14.57
2022-10-02T22:18:49.882Z,9.10
2022-10-02T22:21:41.113Z,9.83
2022-10-02T22:24:32.660Z,8.47
2022-10-02T22:27:18.713Z,15.70
2022-10-02T22:29:48.782Z,9.33
2022-10-02T22:33:04.344Z,8.77
2022-10-02T22:35:45.392Z,13.83
2022-10-02T22:38:17.987Z,14.57
2022-10-02T22:40:52.318Z,12.73
2022-10-02T22:43:29.960Z,9.47
2022-10-02T22:46:03.309Z,13.73
2022-10-02T22:48:38.263Z,9.47
2022-10-02T22:51:16.055Z,9.40
2022-10-02T22:53:50.749Z,9.03
2022-10-02T22:56:26.288Z,15.00
2022-10-02T22:59:03.175Z,9.17
2022-10-02T23:01:42.135Z,9.07
2022-10-02T23:04:21.469Z,9.73
2022-10-02T23:06:53.515Z,11.20
2022-10-02T23:09:25.611Z,9.97
2022-10-02T23:12:01.990Z,9.30
2022-10-02T23:14:39.389Z,7.03
2022-10-02T23:17:13.387Z,11.10
2022-10-02T23:19:45.613Z,8.27
2022-10-02T23:22:23.737Z,7.33
2022-10-02T23:25:00.322Z,11.40
2022-10-02T23:27:39.086Z,7.05
2022-10-02T23:30:11.926Z,10.60
2022-10-02T23:32:48.833Z,14.03
2022-10-02T23:35:24.829Z,12.83
2022-10-02T23:37:58.435Z,11.30
2022-10-02T23:40:44.636Z,12.63
2022-10-02T23:43:18.976Z,10.17
2022-10-02T23:45:52.811Z,10.97
2022-10-02T23:48:20.751Z,10.07
2022-10-02T23:50:55.682Z,8.43
2022-10-02T23:53:58.760Z,8.80
2022-10-02T23:56:42.035Z,11.33
2022-10-02T23:59:28.879Z,13.00
